createdAt,value
2023-11-20T00:00:15.275Z,1289
2023-11-20T00:05:33.468Z,1295
2023-11-20T00:10:52.021Z,1283
2023-11-20T00:16:10.220Z,1287
2023-11-20T00:21:28.753Z,1289
2023-11-20T00:26:47.147Z,1282
2023-11-20T00:32:05.694Z,1275
2023-11-20T00:37:24.035Z,1275
2023-11-20T00:42:42.234Z,1272
2023-11-20T00:48:00.924Z,1278
2023-11-20T00:53:19.481Z,1287
2023-11-20T00:58:37.615Z,1294
2023-11-20T01:03:56.214Z,1298
2023-11-20T01:09:14.875Z,1303
2023-11-20T01:14:33.206Z,1306
2023-11-20T01:19:51.367Z,1308
2023-11-20T01:25:09.676Z,1301
2023-11-20T01:30:28.164Z,1310
2023-11-20T01:35:46.647Z,1306
2023-11-20T01:41:05.008Z,1297
2023-11-20T01:46:23.099Z,1293
2023-11-20T01:51:41.205Z,1292
2023-11-20T01:56:59.532Z,1292
2023-11-20T02:02:17.704Z,1328
2023-11-20T02:07:36.156Z,1374
2023-11-20T02:12:54.844Z,1411
2023-11-20T02:18:13.554Z,1440
2023-11-20T02:23:31.922Z,1452
2023-11-20T02:28:50.242Z,1482
2023-11-20T02:34:08.875Z,1493
2023-11-20T02:39:27.509Z,1501
2023-11-20T02:44:45.456Z,1511
2023-11-20T02:50:03.788Z,1536
2023-11-20T02:55:22.171Z,1552
2023-11-20T03:00:25.065Z,1564
2023-11-20T03:05:43.185Z,1570
2023-11-20T03:11:01.569Z,1568
2023-11-20T03:16:19.777Z,1577
2023-11-20T03:21:38.428Z,1580
2023-11-20T03:26:56.782Z,1590
2023-11-20T03:32:14.746Z,1598
2023-11-20T03:37:33.036Z,1595
2023-11-20T03:42:51.226Z,1612
2023-11-20T03:48:09.680Z,1614
2023-11-20T03:53:28.369Z,1602
2023-11-20T03:58:46.693Z,1598
2023-11-20T04:04:04.696Z,1599
2023-11-20T04:09:23.013Z,1598
2023-11-20T04:14:41.381Z,1603
2023-11-20T04:19:59.722Z,1594
2023-11-20T04:25:18.694Z,1597
2023-11-20T04:30:37.063Z,1601
2023-11-20T04:35:55.648Z,1592
2023-11-20T04:41:14.178Z,1594
2023-11-20T04:46:16.914Z,1607
2023-11-20T04:51:35.590Z,1600
2023-11-20T04:56:54.186Z,1603
2023-11-20T05:02:12.529Z,1610
2023-11-20T05:07:31.543Z,1602
2023-11-20T05:12:50.109Z,1595
2023-11-20T05:18:08.836Z,1593
2023-11-20T05:23:27.296Z,1582
2023-11-20T05:28:45.649Z,1570
2023-11-20T05:34:03.831Z,1586
2023-11-20T05:39:22.121Z,1599
2023-11-20T05:44:40.562Z,1627
2023-11-20T05:49:58.886Z,1631
2023-11-20T05:55:16.863Z,1627
2023-11-20T06:00:35.289Z,1619
2023-11-20T06:05:53.547Z,1583
2023-11-20T06:11:12.063Z,1566
2023-11-20T06:16:30.464Z,1564
2023-11-20T06:21:48.942Z,1543
2023-11-20T06:27:07.352Z,1528
2023-11-20T06:32:25.794Z,1510
2023-11-20T06:37:44.086Z,1492
2023-11-20T06:43:02.615Z,1468
2023-11-20T06:48:21.269Z,1470
2023-11-20T06:53:39.623Z,1470
2023-11-20T06:58:58.364Z,1461
2023-11-20T07:04:16.752Z,1446
2023-11-20T07:09:35.197Z,1436
2023-11-20T07:14:53.719Z,980
2023-11-20T07:20:12.154Z,1025
2023-11-20T07:25:30.869Z,1074
2023-11-20T07:30:49.613Z,1094
2023-11-20T07:35:52.597Z,1108
2023-11-20T07:41:11.118Z,1106
2023-11-20T07:46:29.564Z,1108
2023-11-20T07:51:48.169Z,1105
2023-11-20T07:57:06.421Z,1105
2023-11-20T08:02:25.081Z,1109
2023-11-20T08:07:43.213Z,1108
2023-11-20T08:13:01.816Z,1117
2023-11-20T08:18:20.049Z,1117
2023-11-20T08:23:38.411Z,1116
2023-11-20T08:28:56.772Z,1115
2023-11-20T08:34:15.187Z,1121
2023-11-20T08:39:33.915Z,1119
2023-11-20T08:44:52.454Z,1127
2023-11-20T08:50:10.354Z,1144
2023-11-20T08:55:13.369Z,1153
2023-11-20T09:00:32.219Z,1171
2023-11-20T09:05:50.309Z,986
2023-11-20T09:11:08.435Z,897
2023-11-20T09:16:26.863Z,883
2023-11-20T09:21:45.434Z,926
2023-11-20T09:27:03.783Z,967
2023-11-20T09:32:22.226Z,1005
2023-11-20T09:37:40.568Z,1029
2023-11-20T09:43:00.107Z,1052
2023-11-20T09:48:18.607Z,1070
2023-11-20T09:53:38.469Z,1077
2023-11-20T09:58:56.824Z,1088
2023-11-20T10:04:15.246Z,1026
2023-11-20T10:09:18.394Z,1034
2023-11-20T10:14:36.395Z,1056
2023-11-20T10:19:54.715Z,1083
2023-11-20T10:25:13.082Z,1103
2023-11-20T10:30:31.507Z,1118
2023-11-20T10:35:49.841Z,1145
2023-11-20T10:41:08.244Z,1154
2023-11-20T10:46:26.242Z,1162
2023-11-20T10:51:44.585Z,1173
2023-11-20T10:57:03.177Z,1194
2023-11-20T11:02:21.560Z,1198
2023-11-20T11:07:39.868Z,1191
2023-11-20T11:12:58.184Z,1186
2023-11-20T11:18:17.112Z,1168
2023-11-20T11:23:35.595Z,1162
2023-11-20T11:28:53.503Z,1149
2023-11-20T11:34:11.963Z,1138
2023-11-20T11:39:30.457Z,1149
2023-11-20T11:44:49.035Z,1136
2023-11-20T11:50:08.801Z,1123
2023-11-20T11:55:27.504Z,1114
2023-11-20T12:00:46.331Z,1097
2023-11-20T12:06:04.602Z,1089
2023-11-20T12:11:22.991Z,1084
2023-11-20T12:16:41.425Z,1065
2023-11-20T12:22:00.277Z,1051
2023-11-20T12:27:18.728Z,1049
2023-11-20T12:32:37.429Z,1037
2023-11-20T12:37:45.626Z,1032
2023-11-20T12:43:04.248Z,1025
2023-11-20T12:48:22.537Z,1022
2023-11-20T12:53:41.042Z,1027
2023-11-20T12:58:59.292Z,1025
2023-11-20T13:04:17.503Z,1018
2023-11-20T13:09:36.016Z,1013
2023-11-20T13:14:54.556Z,1020
2023-11-20T13:20:13.102Z,1017
2023-11-20T13:25:31.515Z,1010
2023-11-20T13:30:49.735Z,1013
2023-11-20T13:36:08.133Z,1011
2023-11-20T13:41:28.810Z,1012
2023-11-20T13:46:47.403Z,1011
2023-11-20T13:52:05.883Z,1008
2023-11-20T13:57:24.066Z,1008
2023-11-20T14:02:45.311Z,1007
2023-11-20T14:08:04.230Z,1005
2023-11-20T14:13:22.597Z,1007
2023-11-20T14:18:41.161Z,1007
2023-11-20T14:24:05.660Z,1009
2023-11-20T14:29:24.004Z,1005
2023-11-20T14:34:42.376Z,1010
2023-11-20T14:40:01.043Z,1008
2023-11-20T14:45:19.445Z,980
2023-11-20T14:50:37.836Z,872
2023-11-20T14:55:55.814Z,906
2023-11-20T15:01:19.969Z,931
2023-11-20T15:06:38.769Z,919
2023-11-20T15:11:57.197Z,877
2023-11-20T15:17:15.230Z,885
2023-11-20T15:22:33.408Z,897
2023-11-20T15:27:51.809Z,909
2023-11-20T15:33:10.048Z,913
2023-11-20T15:38:28.444Z,914
2023-11-20T15:43:47.041Z,916
2023-11-20T15:49:05.185Z,923
2023-11-20T15:54:24.078Z,916
2023-11-20T15:59:42.425Z,919
2023-11-20T16:05:00.564Z,917
2023-11-20T16:10:18.813Z,918
2023-11-20T16:15:37.247Z,935
2023-11-20T16:20:55.593Z,973
2023-11-20T16:26:14.793Z,1008
2023-11-20T16:31:33.526Z,1019
2023-11-20T16:36:52.101Z,1025
2023-11-20T16:42:10.690Z,1021
2023-11-20T16:47:28.873Z,1020
2023-11-20T16:52:47.251Z,1023
2023-11-20T16:58:05.760Z,1013
2023-11-20T17:03:24.651Z,1016
2023-11-20T17:08:43.205Z,1019
2023-11-20T17:14:01.335Z,1018
2023-11-20T17:19:19.791Z,1020
2023-11-20T17:24:38.387Z,1020
2023-11-20T17:29:56.948Z,1017
2023-11-20T17:35:15.292Z,1012
2023-11-20T17:40:33.914Z,1007
2023-11-20T17:45:52.755Z,1004
2023-11-20T17:51:12.126Z,1005
2023-11-20T17:56:30.868Z,1006
2023-11-20T18:01:52.572Z,1003
2023-11-20T18:07:11.409Z,1003
2023-11-20T18:12:14.050Z,1007
2023-11-20T18:17:32.562Z,1006
2023-11-20T18:22:51.274Z,1007
2023-11-20T18:28:09.416Z,1014
2023-11-20T18:33:29.186Z,1007
2023-11-20T18:38:50.124Z,1009
2023-11-20T18:44:10.511Z,1007
2023-11-20T18:49:30.156Z,1004
2023-11-20T18:54:49.728Z,1013
2023-11-20T19:00:07.931Z,1017
2023-11-20T19:05:26.716Z,1021
2023-11-20T19:10:45.296Z,1031
2023-11-20T19:16:03.799Z,1027
2023-11-20T19:21:21.977Z,1032
2023-11-20T19:26:40.604Z,1032
2023-11-20T19:31:58.959Z,1038
2023-11-20T19:37:17.376Z,1062
2023-11-20T19:42:35.700Z,1038
2023-11-20T19:47:53.852Z,1038
2023-11-20T19:53:12.044Z,1048
2023-11-20T19:58:30.251Z,1054
2023-11-20T20:03:51.253Z,1075
2023-11-20T20:09:11.199Z,1102
2023-11-20T20:14:29.573Z,1115
2023-11-20T20:19:48.278Z,1134
2023-11-20T20:25:06.870Z,1136
2023-11-20T20:30:25.181Z,1147
2023-11-20T20:35:43.606Z,1157
2023-11-20T20:41:01.744Z,1163
2023-11-20T20:46:19.926Z,1168
2023-11-20T20:51:38.401Z,1175
2023-11-20T20:56:56.739Z,1174
2023-11-20T21:02:15.198Z,1179
2023-11-20T21:07:33.771Z,1181
2023-11-20T21:12:52.239Z,1185
2023-11-20T21:18:10.437Z,1191
2023-11-20T21:23:28.697Z,1199
2023-11-20T21:28:47.260Z,1206
2023-11-20T21:34:05.851Z,1228
2023-11-20T21:39:24.188Z,1261
2023-11-20T21:44:42.575Z,1278
2023-11-20T21:50:01.167Z,1325
2023-11-20T21:55:19.543Z,1387
2023-11-20T22:00:38.199Z,1421
2023-11-20T22:05:56.561Z,1422
2023-11-20T22:11:15.010Z,1437
2023-11-20T22:16:33.303Z,1486
2023-11-20T22:21:51.668Z,1514
2023-11-20T22:27:10.022Z,1522
2023-11-20T22:32:28.448Z,1542
2023-11-20T22:37:47.410Z,1550
2023-11-20T22:43:05.750Z,1554
2023-11-20T22:48:24.193Z,1559
2023-11-20T22:53:42.373Z,1564
2023-11-20T22:59:00.727Z,1566
2023-11-20T23:04:19.115Z,1576
2023-11-20T23:09:37.913Z,1575
2023-11-20T23:14:56.064Z,1582
2023-11-20T23:20:19.124Z,1589
2023-11-20T23:25:39.068Z,1588
2023-11-20T23:30:57.265Z,1588
2023-11-20T23:36:15.650Z,1592
2023-11-20T23:41:34.393Z,1600
2023-11-20T23:46:52.957Z,1612
2023-11-20T23:52:11.432Z,1607
2023-11-20T23:57:29.870Z,1603
